Time;durP1;ratioP1;P1;durP2;ratioP2;P2;SDS_P1;SDS_P2;PMS_P1;PMS_P2;Temp;Humidity;BMP_temperature;BMP_pressure;BME280_temperature;BME280_humidity;BME280_pressure;Samples;Min_cycle;Max_cycle;Signal;HPM_P1;HPM_P2
2021/12/31 00:00:27;;;;;;;1.40;1.30;;;;;;;;;;5002559;28;20041;-70
2021/12/31 00:02:53;;;;;;;1.45;1.10;;;;;;;;;;5002172;28;20150;-69
2021/12/31 00:05:18;;;;;;;2.80;0.88;;;;;;;;;;5001559;28;20030;-69
2021/12/31 00:07:45;;;;;;;5.38;0.95;;;;;;;;;;5001053;28;20041;-69
2021/12/31 00:10:11;;;;;;;0.95;0.77;;;;;;;;;;5002121;28;20050;-69
2021/12/31 00:12:37;;;;;;;3.50;0.85;;;;;;;;;;5002131;28;20042;-69
2021/12/31 00:15:03;;;;;;;0.93;0.70;;;;;;;;;;5002072;28;20022;-69
2021/12/31 00:17:29;;;;;;;2.28;0.82;;;;;;;;;;5001598;28;20042;-69
2021/12/31 00:20:05;;;;;;;0.90;0.90;;;;;;;;;;5001945;28;20129;-69
2021/12/31 00:25:15;;;;;;;0.82;0.70;;;;;;;;;;5001975;28;20050;-69
2021/12/31 00:27:40;;;;;;;1.63;1.10;;;;;;;;;;5001060;28;20034;-69
2021/12/31 00:30:07;;;;;;;0.73;0.70;;;;;;;;;;5001507;28;20037;-70
2021/12/31 00:32:33;;;;;;;0.90;0.80;;;;;;;;;;5001666;28;20037;-69
2021/12/31 00:34:59;;;;;;;1.00;0.90;;;;;;;;;;5001854;28;20032;-70
2021/12/31 00:37:28;;;;;;;1.10;1.10;;;;;;;;;;5000908;28;20092;-70
2021/12/31 00:39:55;;;;;;;1.27;0.88;;;;;;;;;;5001644;28;20026;-71
2021/12/31 00:42:21;;;;;;;3.72;1.30;;;;;;;;;;5001605;28;20065;-70
2021/12/31 00:44:46;;;;;;;1.95;1.75;;;;;;;;;;5000519;28;20129;-70
2021/12/31 00:47:12;;;;;;;1.60;1.50;;;;;;;;;;5001597;28;20041;-70
2021/12/31 00:49:37;;;;;;;2.20;1.50;;;;;;;;;;5000784;28;20045;-70
2021/12/31 00:52:03;;;;;;;2.35;1.83;;;;;;;;;;5001347;28;20049;-70
2021/12/31 00:54:28;;;;;;;1.45;1.35;;;;;;;;;;5001441;28;20037;-70
2021/12/31 00:57:00;;;;;;;2.67;1.30;;;;;;;;;;5001495;28;20041;-70
2021/12/31 00:59:25;;;;;;;2.40;1.30;;;;;;;;;;5000465;28;20822;-71
2021/12/31 01:01:50;;;;;;;1.30;1.00;;;;;;;;;;5001719;28;20053;-70
2021/12/31 01:04:16;;;;;;;1.35;1.25;;;;;;;;;;5001450;28;20030;-70
2021/12/31 01:06:41;;;;;;;1.55;1.20;;;;;;;;;;5002519;28;20037;-70
2021/12/31 01:09:06;;;;;;;2.13;1.10;;;;;;;;;;5003759;28;20386;-70
2021/12/31 01:11:33;;;;;;;2.33;0.88;;;;;;;;;;5002592;28;20177;-70
2021/12/31 01:14:03;;;;;;;1.35;1.00;;;;;;;;;;5001277;28;20508;-70
2021/12/31 01:16:34;;;;;;;3.80;1.05;;;;;;;;;;5001162;28;20395;-70
2021/12/31 01:21:25;;;;;;;0.70;0.70;;;;;;;;;;5000584;28;20184;-70
2021/12/31 01:23:51;;;;;;;1.08;0.98;;;;;;;;;;5001191;28;20125;-70
2021/12/31 01:26:17;;;;;;;0.80;0.75;;;;;;;;;;5000898;28;20163;-70
2021/12/31 01:28:43;;;;;;;0.60;0.60;;;;;;;;;;5001314;28;20068;-70
2021/12/31 01:31:09;;;;;;;0.60;0.60;;;;;;;;;;5001008;28;20061;-70
2021/12/31 01:33:34;;;;;;;0.80;0.65;;;;;;;;;;5000184;28;20464;-70
2021/12/31 01:36:00;;;;;;;0.50;0.50;;;;;;;;;;4999542;28;20045;-71
2021/12/31 01:38:25;;;;;;;0.70;0.70;;;;;;;;;;5001152;28;20057;-70
2021/12/31 01:40:51;;;;;;;2.88;0.75;;;;;;;;;;5000961;28;20038;-70
2021/12/31 01:43:18;;;;;;;1.60;0.65;;;;;;;;;;5000103;28;20038;-70
2021/12/31 01:45:53;;;;;;;1.85;0.75;;;;;;;;;;5000814;28;20202;-70
2021/12/31 01:48:24;;;;;;;0.75;0.75;;;;;;;;;;5000738;28;20042;-70
2021/12/31 01:50:50;;;;;;;0.80;0.80;;;;;;;;;;5000934;28;20112;-70
2021/12/31 01:53:17;;;;;;;1.40;0.70;;;;;;;;;;5000847;28;20561;-70
2021/12/31 01:55:43;;;;;;;0.40;0.40;;;;;;;;;;5000393;28;20038;-70
2021/12/31 01:58:09;;;;;;;2.53;0.60;;;;;;;;;;5001111;28;20052;-70
2021/12/31 02:00:37;;;;;;;0.57;0.40;;;;;;;;;;5000776;28;20391;-70
2021/12/31 02:03:04;;;;;;;0.50;0.50;;;;;;;;;;4999250;28;20040;-70
2021/12/31 02:05:29;;;;;;;0.50;0.50;;;;;;;;;;4999834;28;20044;-70
2021/12/31 02:07:55;;;;;;;0.45;0.45;;;;;;;;;;5002534;28;20041;-70
2021/12/31 02:10:20;;;;;;;0.52;0.52;;;;;;;;;;5004055;28;20124;-70
2021/12/31 02:12:48;;;;;;;0.82;0.60;;;;;;;;;;5004432;28;20041;-70
2021/12/31 02:15:18;;;;;;;1.20;0.68;;;;;;;;;;5004049;28;21015;-70
2021/12/31 02:17:47;;;;;;;0.57;0.57;;;;;;;;;;5003833;28;20064;-70
2021/12/31 02:20:14;;;;;;;2.28;0.60;;;;;;;;;;5003870;28;20045;-70
2021/12/31 02:22:43;;;;;;;2.05;0.68;;;;;;;;;;5004020;28;20469;-70
2021/12/31 02:25:09;;;;;;;0.60;0.60;;;;;;;;;;5004200;28;20085;-70
2021/12/31 02:27:39;;;;;;;0.63;0.63;;;;;;;;;;4999696;28;20406;-70
2021/12/31 02:30:07;;;;;;;1.20;1.10;;;;;;;;;;5002743;28;20045;-71
2021/12/31 02:32:33;;;;;;;1.15;1.05;;;;;;;;;;5004342;28;20036;-70
2021/12/31 02:34:58;;;;;;;1.05;1.00;;;;;;;;;;5004255;28;20030;-70
2021/12/31 02:37:24;;;;;;;1.20;1.00;;;;;;;;;;5006070;28;20068;-70
2021/12/31 02:39:49;;;;;;;1.20;1.10;;;;;;;;;;5003049;28;20037;-70
2021/12/31 02:42:15;;;;;;;1.30;1.20;;;;;;;;;;5003195;28;20128;-70
2021/12/31 02:44:41;;;;;;;1.98;1.50;;;;;;;;;;5003771;28;20046;-70
2021/12/31 02:47:07;;;;;;;1.52;1.40;;;;;;;;;;5003710;28;21084;-70
2021/12/31 02:49:38;;;;;;;2.58;1.30;;;;;;;;;;5001717;28;21006;-70
2021/12/31 02:52:05;;;;;;;3.97;1.20;;;;;;;;;;5003317;28;20037;-70
2021/12/31 02:54:35;;;;;;;1.20;1.10;;;;;;;;;;5003683;28;20029;-70
2021/12/31 02:57:01;;;;;;;1.20;1.10;;;;;;;;;;5003677;28;20046;-70
2021/12/31 02:59:27;;;;;;;1.15;1.05;;;;;;;;;;5003593;28;20025;-70
2021/12/31 03:01:54;;;;;;;1.15;0.90;;;;;;;;;;5002677;28;20173;-70
2021/12/31 03:04:20;;;;;;;2.38;0.98;;;;;;;;;;5003272;28;20037;-70
2021/12/31 03:06:46;;;;;;;1.02;0.90;;;;;;;;;;5003147;28;20037;-70
2021/12/31 03:09:13;;;;;;;1.90;0.90;;;;;;;;;;5003392;28;20521;-70
2021/12/31 03:11:39;;;;;;;0.90;0.90;;;;;;;;;;5002621;28;20050;-70
2021/12/31 03:14:06;;;;;;;1.25;1.15;;;;;;;;;;5002824;28;20033;-70
2021/12/31 03:16:32;;;;;;;3.28;1.10;;;;;;;;;;5003345;28;20034;-70
2021/12/31 03:18:58;;;;;;;1.10;1.00;;;;;;;;;;5001916;28;20096;-70
2021/12/31 03:21:23;;;;;;;2.28;1.00;;;;;;;;;;5002593;28;20474;-71
2021/12/31 03:23:52;;;;;;;1.10;1.00;;;;;;;;;;5002160;28;20069;-71
2021/12/31 03:26:18;;;;;;;1.33;1.25;;;;;;;;;;5002312;28;20096;-70
2021/12/31 03:28:44;;;;;;;1.38;1.27;;;;;;;;;;5003111;28;20041;-70
2021/12/31 03:31:09;;;;;;;1.13;1.02;;;;;;;;;;5002790;28;20068;-70
2021/12/31 03:33:35;;;;;;;1.23;1.08;;;;;;;;;;5002055;28;20038;-70
2021/12/31 03:36:00;;;;;;;1.13;1.00;;;;;;;;;;5002445;28;20633;-70
2021/12/31 03:38:26;;;;;;;1.10;1.00;;;;;;;;;;5002887;28;20037;-70
2021/12/31 03:40:51;;;;;;;1.23;1.10;;;;;;;;;;5002639;28;20384;-70
2021/12/31 03:43:16;;;;;;;2.42;1.67;;;;;;;;;;5002460;28;20073;-70
2021/12/31 03:45:42;;;;;;;4.75;1.70;;;;;;;;;;5001449;28;20030;-70
2021/12/31 03:48:08;;;;;;;1.60;1.50;;;;;;;;;;5002542;28;20042;-70
2021/12/31 03:50:33;;;;;;;2.10;1.65;;;;;;;;;;5002702;28;20083;-70
2021/12/31 03:52:58;;;;;;;2.00;1.73;;;;;;;;;;5000871;28;20038;-70
2021/12/31 03:55:24;;;;;;;2.63;1.98;;;;;;;;;;5002286;28;20092;-70
2021/12/31 03:57:50;;;;;;;2.33;1.73;;;;;;;;;;5002396;28;20104;-70
2021/12/31 04:00:16;;;;;;;2.45;2.17;;;;;;;;;;5002371;28;20041;-70
2021/12/31 04:02:42;;;;;;;3.58;2.55;;;;;;;;;;5002263;28;20823;-70
2021/12/31 04:05:08;;;;;;;2.53;2.33;;;;;;;;;;5001070;28;20049;-70
2021/12/31 04:07:34;;;;;;;3.40;2.70;;;;;;;;;;5000777;28;20065;-69
2021/12/31 04:09:59;;;;;;;3.22;2.80;;;;;;;;;;5000707;28;20033;-70
2021/12/31 04:12:25;;;;;;;3.13;2.83;;;;;;;;;;4999798;28;21800;-69
2021/12/31 04:14:50;;;;;;;3.72;2.72;;;;;;;;;;5000535;28;20490;-69
2021/12/31 04:17:15;;;;;;;3.30;3.00;;;;;;;;;;5000196;28;20041;-69
2021/12/31 04:19:42;;;;;;;3.42;2.88;;;;;;;;;;5001995;28;20110;-69
2021/12/31 04:22:08;;;;;;;5.07;3.17;;;;;;;;;;5002003;28;20041;-70
2021/12/31 04:27:09;;;;;;;3.40;3.10;;;;;;;;;;5000058;28;20061;-69
2021/12/31 04:29:35;;;;;;;3.67;3.15;;;;;;;;;;5000591;28;20037;-69
2021/12/31 04:32:01;;;;;;;3.13;2.80;;;;;;;;;;5001401;28;20034;-69
2021/12/31 04:34:27;;;;;;;4.00;3.03;;;;;;;;;;5001456;28;20117;-69
2021/12/31 04:36:53;;;;;;;4.03;3.25;;;;;;;;;;5001732;28;20155;-69
2021/12/31 04:39:19;;;;;;;3.60;3.22;;;;;;;;;;5000291;28;20482;-69
2021/12/31 04:41:44;;;;;;;4.35;3.40;;;;;;;;;;4999058;28;20037;-69
2021/12/31 04:44:10;;;;;;;3.35;3.05;;;;;;;;;;5001146;28;20038;-69
2021/12/31 04:46:35;;;;;;;5.93;3.38;;;;;;;;;;5001488;28;20025;-69
2021/12/31 04:49:01;;;;;;;3.22;2.88;;;;;;;;;;5001874;28;20065;-69
2021/12/31 04:51:26;;;;;;;3.45;2.97;;;;;;;;;;5001087;28;20041;-69
2021/12/31 04:53:52;;;;;;;4.53;3.30;;;;;;;;;;5001618;28;20076;-69
2021/12/31 04:56:17;;;;;;;3.80;3.40;;;;;;;;;;5001355;28;21104;-69
2021/12/31 04:58:43;;;;;;;4.85;3.00;;;;;;;;;;5001516;28;20063;-69
2021/12/31 05:01:08;;;;;;;4.35;3.17;;;;;;;;;;5000274;28;20034;-69
2021/12/31 05:03:34;;;;;;;3.30;3.00;;;;;;;;;;5001244;28;20728;-69
2021/12/31 05:05:59;;;;;;;4.47;3.92;;;;;;;;;;5001108;28;20034;-69
2021/12/31 05:08:24;;;;;;;4.57;4.10;;;;;;;;;;5001662;28;20030;-69
2021/12/31 05:10:50;;;;;;;4.50;4.00;;;;;;;;;;5001246;28;20398;-69
2021/12/31 05:13:16;;;;;;;5.82;4.68;;;;;;;;;;5000530;28;20088;-69
2021/12/31 05:15:46;;;;;;;6.30;4.15;;;;;;;;;;5001295;28;20092;-69
2021/12/31 05:18:13;;;;;;;5.80;4.50;;;;;;;;;;5001157;28;20139;-69
2021/12/31 05:20:40;;;;;;;5.18;4.22;;;;;;;;;;5001312;28;20470;-69
2021/12/31 05:23:05;;;;;;;5.97;4.40;;;;;;;;;;5000509;28;20096;-69
2021/12/31 05:25:31;;;;;;;4.90;4.40;;;;;;;;;;4999768;28;20082;-69
2021/12/31 05:27:56;;;;;;;5.53;3.92;;;;;;;;;;5001346;28;20457;-69
2021/12/31 05:30:22;;;;;;;5.70;4.22;;;;;;;;;;5000942;28;20045;-69
2021/12/31 05:32:47;;;;;;;6.10;4.53;;;;;;;;;;5001087;28;20473;-68
2021/12/31 05:35:14;;;;;;;6.43;4.65;;;;;;;;;;5000116;28;20049;-68
2021/12/31 05:37:40;;;;;;;6.13;4.93;;;;;;;;;;5001167;28;20034;-71
2021/12/31 05:40:06;;;;;;;5.70;4.47;;;;;;;;;;5000969;28;20030;-71
2021/12/31 05:42:32;;;;;;;8.18;4.90;;;;;;;;;;5002256;28;20034;-71
2021/12/31 05:44:58;;;;;;;6.38;4.55;;;;;;;;;;5003649;28;20034;-71
2021/12/31 05:47:26;;;;;;;6.97;4.57;;;;;;;;;;5004498;28;20076;-71
2021/12/31 05:49:52;;;;;;;4.82;4.32;;;;;;;;;;5004884;28;20395;-69
2021/12/31 05:52:17;;;;;;;5.47;4.32;;;;;;;;;;5004794;28;20045;-69
2021/12/31 05:54:43;;;;;;;6.05;4.63;;;;;;;;;;5004489;28;20037;-69
2021/12/31 05:57:08;;;;;;;5.57;4.80;;;;;;;;;;5003969;28;20084;-69
2021/12/31 05:59:34;;;;;;;6.50;4.25;;;;;;;;;;5005654;28;20041;-69
2021/12/31 06:01:59;;;;;;;4.38;3.85;;;;;;;;;;5005546;28;20048;-69
2021/12/31 06:04:25;;;;;;;4.50;3.95;;;;;;;;;;5004145;28;20042;-69
2021/12/31 06:06:50;;;;;;;4.43;4.03;;;;;;;;;;5003813;28;20046;-69
2021/12/31 06:09:15;;;;;;;4.10;3.70;;;;;;;;;;5003955;28;20034;-69
2021/12/31 06:11:41;;;;;;;4.65;4.05;;;;;;;;;;5004616;28;20054;-69
2021/12/31 06:14:09;;;;;;;5.05;4.38;;;;;;;;;;5004127;28;20045;-69
2021/12/31 06:16:40;;;;;;;4.80;4.20;;;;;;;;;;5004039;28;20102;-69
2021/12/31 06:19:08;;;;;;;6.75;4.00;;;;;;;;;;5003447;28;20064;-69
2021/12/31 06:21:34;;;;;;;4.75;3.70;;;;;;;;;;5004175;28;20076;-69
2021/12/31 06:24:00;;;;;;;5.30;3.80;;;;;;;;;;5003957;28;20044;-71
2021/12/31 06:26:26;;;;;;;5.22;4.20;;;;;;;;;;5004402;28;20038;-69
2021/12/31 06:28:51;;;;;;;4.78;4.28;;;;;;;;;;5001993;28;20049;-69
2021/12/31 06:31:17;;;;;;;6.45;3.92;;;;;;;;;;5003827;28;20084;-69
2021/12/31 06:33:42;;;;;;;5.40;4.30;;;;;;;;;;5004409;28;20431;-69
2021/12/31 06:36:08;;;;;;;4.75;4.00;;;;;;;;;;5002029;28;20137;-69
2021/12/31 06:38:33;;;;;;;5.18;4.32;;;;;;;;;;4986193;28;20029;-68
2021/12/31 06:40:59;;;;;;;5.93;4.05;;;;;;;;;;5002340;28;20577;-68
2021/12/31 06:43:24;;;;;;;4.13;3.70;;;;;;;;;;5002781;28;20062;-68
2021/12/31 06:45:50;;;;;;;4.50;4.07;;;;;;;;;;5002113;28;20037;-69
2021/12/31 06:48:15;;;;;;;5.82;4.03;;;;;;;;;;5001754;28;20040;-69
2021/12/31 06:50:41;;;;;;;5.03;3.92;;;;;;;;;;5002767;28;20057;-68
2021/12/31 06:53:06;;;;;;;7.28;3.75;;;;;;;;;;5003044;28;20052;-68
2021/12/31 06:55:32;;;;;;;6.43;3.65;;;;;;;;;;5003164;28;20596;-71
2021/12/31 06:57:58;;;;;;;4.30;3.90;;;;;;;;;;5002957;28;20041;-69
2021/12/31 07:00:24;;;;;;;3.35;3.05;;;;;;;;;;5003051;28;20049;-69
2021/12/31 07:02:49;;;;;;;4.28;3.65;;;;;;;;;;5002827;28;20041;-69
2021/12/31 07:05:15;;;;;;;3.90;3.50;;;;;;;;;;5004353;28;20052;-69
2021/12/31 07:07:40;;;;;;;4.70;3.47;;;;;;;;;;5003771;28;20033;-69
2021/12/31 07:10:07;;;;;;;4.40;3.58;;;;;;;;;;5003115;28;20526;-69
2021/12/31 07:12:33;;;;;;;5.90;4.20;;;;;;;;;;5001788;28;20033;-70
2021/12/31 07:14:58;;;;;;;4.60;3.88;;;;;;;;;;5001843;28;20487;-70
2021/12/31 07:17:26;;;;;;;6.30;4.00;;;;;;;;;;5002275;28;20505;-70
2021/12/31 07:19:52;;;;;;;5.30;4.25;;;;;;;;;;5002859;28;20096;-70
2021/12/31 07:22:17;;;;;;;4.45;4.05;;;;;;;;;;5002841;28;20034;-70
2021/12/31 07:24:42;;;;;;;4.18;3.72;;;;;;;;;;5001998;28;20462;-70
2021/12/31 07:27:08;;;;;;;5.05;3.80;;;;;;;;;;5002763;28;20502;-70
2021/12/31 07:29:33;;;;;;;4.28;3.88;;;;;;;;;;5003193;28;20510;-70
2021/12/31 07:31:59;;;;;;;5.10;4.10;;;;;;;;;;5002926;28;20025;-70
2021/12/31 07:34:25;;;;;;;4.88;4.10;;;;;;;;;;5001775;28;20033;-70
2021/12/31 07:36:50;;;;;;;5.07;4.13;;;;;;;;;;5001906;28;20030;-71
2021/12/31 07:39:16;;;;;;;5.13;4.45;;;;;;;;;;5002664;28;20892;-70
2021/12/31 07:41:41;;;;;;;4.75;4.28;;;;;;;;;;5002962;28;20581;-70
2021/12/31 07:44:07;;;;;;;5.22;4.20;;;;;;;;;;4999465;28;20462;-70
2021/12/31 07:46:33;;;;;;;4.57;3.67;;;;;;;;;;5000651;28;20049;-69
2021/12/31 07:48:58;;;;;;;3.60;3.17;;;;;;;;;;5000812;28;20105;-69
2021/12/31 07:51:24;;;;;;;5.65;3.08;;;;;;;;;;4999810;28;20466;-69
2021/12/31 07:53:49;;;;;;;3.10;2.72;;;;;;;;;;4998778;28;20030;-68
2021/12/31 07:56:18;;;;;;;3.08;2.65;;;;;;;;;;4995145;28;20439;-69
2021/12/31 07:58:48;;;;;;;2.15;1.95;;;;;;;;;;4998951;28;20033;-69
2021/12/31 08:01:14;;;;;;;2.42;2.20;;;;;;;;;;4999092;28;20044;-69
2021/12/31 08:03:39;;;;;;;2.35;2.15;;;;;;;;;;4997805;28;20136;-69
2021/12/31 08:06:05;;;;;;;2.20;2.00;;;;;;;;;;4998602;28;20145;-69
2021/12/31 08:08:30;;;;;;;2.70;2.17;;;;;;;;;;4999098;28;20038;-68
2021/12/31 08:10:55;;;;;;;3.10;2.17;;;;;;;;;;4999955;28;20099;-69
2021/12/31 08:13:22;;;;;;;3.47;2.60;;;;;;;;;;5000200;28;20394;-69
2021/12/31 08:15:47;;;;;;;2.15;1.95;;;;;;;;;;5000478;28;20045;-69
2021/12/31 08:18:13;;;;;;;2.45;2.10;;;;;;;;;;4998098;28;20029;-68
2021/12/31 08:20:38;;;;;;;2.63;2.03;;;;;;;;;;5000274;28;20049;-69
2021/12/31 08:23:09;;;;;;;5.03;2.30;;;;;;;;;;5000187;28;20049;-69
2021/12/31 08:25:38;;;;;;;3.58;2.17;;;;;;;;;;5000039;28;20030;-69
2021/12/31 08:28:05;;;;;;;2.08;1.90;;;;;;;;;;4999651;28;20044;-69
2021/12/31 08:30:31;;;;;;;2.63;2.15;;;;;;;;;;4999301;28;20113;-69
2021/12/31 08:32:58;;;;;;;2.72;2.30;;;;;;;;;;4998689;28;20440;-69
2021/12/31 08:35:24;;;;;;;1.95;1.85;;;;;;;;;;4999329;28;20528;-70
2021/12/31 08:37:51;;;;;;;2.10;1.50;;;;;;;;;;5000294;28;20033;-70
2021/12/31 08:40:17;;;;;;;2.47;1.35;;;;;;;;;;4997102;28;20034;-69
2021/12/31 08:42:43;;;;;;;1.67;1.58;;;;;;;;;;4998374;28;20029;-70
2021/12/31 08:45:09;;;;;;;1.45;1.35;;;;;;;;;;4998956;28;20077;-70
2021/12/31 08:47:35;;;;;;;1.77;1.65;;;;;;;;;;4999761;28;20034;-70
2021/12/31 08:50:00;;;;;;;1.70;1.60;;;;;;;;;;5000263;28;20398;-70
2021/12/31 08:52:26;;;;;;;1.70;1.60;;;;;;;;;;4997702;28;20038;-70
2021/12/31 08:54:51;;;;;;;1.70;1.60;;;;;;;;;;4998130;28;20158;-70
2021/12/31 08:57:17;;;;;;;2.35;1.63;;;;;;;;;;4996686;28;20029;-70
2021/12/31 08:59:43;;;;;;;1.50;1.40;;;;;;;;;;4999665;28;20041;-70
2021/12/31 09:02:08;;;;;;;1.80;1.70;;;;;;;;;;4999357;28;20029;-69
2021/12/31 09:04:34;;;;;;;1.73;1.63;;;;;;;;;;4999859;28;20125;-70
2021/12/31 09:07:00;;;;;;;1.90;1.75;;;;;;;;;;5000659;28;20041;-70
2021/12/31 09:09:25;;;;;;;1.40;1.30;;;;;;;;;;4999251;28;20030;-71
2021/12/31 09:11:51;;;;;;;2.42;1.60;;;;;;;;;;4999838;28;20032;-72
2021/12/31 09:14:16;;;;;;;1.85;1.67;;;;;;;;;;4997936;28;20037;-72
2021/12/31 09:16:45;;;;;;;1.77;1.67;;;;;;;;;;4999974;28;20050;-71
2021/12/31 09:19:12;;;;;;;2.08;1.88;;;;;;;;;;5003040;28;20109;-73
2021/12/31 09:21:37;;;;;;;2.15;1.63;;;;;;;;;;5003486;28;20034;-70
2021/12/31 09:24:03;;;;;;;1.77;1.67;;;;;;;;;;5003993;28;20091;-70
2021/12/31 09:26:28;;;;;;;2.17;1.98;;;;;;;;;;5004362;28;20108;-71
2021/12/31 09:28:54;;;;;;;4.07;2.00;;;;;;;;;;5005532;28;21024;-71
2021/12/31 09:31:19;;;;;;;5.85;2.03;;;;;;;;;;5004948;28;20130;-70
2021/12/31 09:33:45;;;;;;;1.95;1.73;;;;;;;;;;5005097;28;20104;-70
2021/12/31 09:36:10;;;;;;;2.75;1.80;;;;;;;;;;5003945;28;20042;-70
2021/12/31 09:38:36;;;;;;;3.30;2.00;;;;;;;;;;5005186;28;20403;-70
2021/12/31 09:41:01;;;;;;;3.10;1.80;;;;;;;;;;5004936;28;20042;-70
2021/12/31 09:43:27;;;;;;;2.40;2.20;;;;;;;;;;5004864;28;20034;-70
2021/12/31 09:45:53;;;;;;;1.70;1.60;;;;;;;;;;5003384;28;20129;-70
2021/12/31 09:48:21;;;;;;;1.92;1.58;;;;;;;;;;5003265;28;20117;-72
2021/12/31 09:50:50;;;;;;;1.75;1.65;;;;;;;;;;5003515;28;20034;-72
2021/12/31 09:53:18;;;;;;;1.80;1.70;;;;;;;;;;5004099;28;20092;-71
2021/12/31 09:55:45;;;;;;;1.70;1.60;;;;;;;;;;5003955;28;20025;-73
2021/12/31 09:58:12;;;;;;;1.80;1.70;;;;;;;;;;5002318;28;20498;-73
2021/12/31 10:00:41;;;;;;;1.58;1.48;;;;;;;;;;5003359;28;20050;-74
2021/12/31 10:03:25;;;;;;;1.50;1.40;;;;;;;;;;5003955;28;20073;-74
2021/12/31 10:06:14;;;;;;;1.60;1.50;;;;;;;;;;5003914;28;20152;-74
2021/12/31 10:08:43;;;;;;;1.88;1.42;;;;;;;;;;4995028;28;20467;-74
2021/12/31 10:11:22;;;;;;;1.98;1.30;;;;;;;;;;5003606;28;20038;-74
2021/12/31 10:13:55;;;;;;;1.50;1.40;;;;;;;;;;5003858;28;20041;-74
2021/12/31 10:16:22;;;;;;;1.60;1.33;;;;;;;;;;5003728;28;20091;-74
2021/12/31 10:18:48;;;;;;;1.50;1.40;;;;;;;;;;5004292;28;20038;-74
2021/12/31 10:21:14;;;;;;;2.78;1.35;;;;;;;;;;5003163;28;20033;-74
2021/12/31 10:23:40;;;;;;;1.63;1.40;;;;;;;;;;5003603;28;20056;-74
2021/12/31 10:26:07;;;;;;;1.50;1.40;;;;;;;;;;5004019;28;20038;-74
2021/12/31 10:28:34;;;;;;;2.67;1.20;;;;;;;;;;5003831;28;20513;-73
2021/12/31 10:31:14;;;;;;;1.83;1.42;;;;;;;;;;5003750;28;20060;-73
2021/12/31 10:33:44;;;;;;;1.42;1.30;;;;;;;;;;5003397;28;20164;-72
2021/12/31 10:36:31;;;;;;;1.42;1.30;;;;;;;;;;5003123;28;20052;-73
2021/12/31 10:38:59;;;;;;;1.50;1.40;;;;;;;;;;5003076;28;20922;-73
2021/12/31 10:41:24;;;;;;;1.45;1.35;;;;;;;;;;5002758;28;20115;-73
2021/12/31 10:43:59;;;;;;;1.40;1.30;;;;;;;;;;5003213;28;20038;-73
2021/12/31 10:46:25;;;;;;;2.53;1.30;;;;;;;;;;5003912;28;20029;-73
2021/12/31 10:48:54;;;;;;;1.40;1.30;;;;;;;;;;5003764;28;20037;-73
2021/12/31 10:51:36;;;;;;;3.00;1.50;;;;;;;;;;5003726;28;20084;-73
2021/12/31 10:54:33;;;;;;;1.50;1.40;;;;;;;;;;5002729;28;20034;-73
2021/12/31 10:56:59;;;;;;;1.40;1.30;;;;;;;;;;5002697;28;20037;-73
2021/12/31 10:59:26;;;;;;;5.93;1.60;;;;;;;;;;5003685;28;20040;-73
2021/12/31 11:01:54;;;;;;;2.40;1.40;;;;;;;;;;5003558;28;20041;-73
2021/12/31 11:04:21;;;;;;;1.13;1.02;;;;;;;;;;5001757;28;20120;-74
2021/12/31 11:06:47;;;;;;;1.60;1.17;;;;;;;;;;5003309;28;20034;-73
2021/12/31 11:09:14;;;;;;;1.60;1.20;;;;;;;;;;5003565;28;20052;-72
2021/12/31 11:11:43;;;;;;;1.25;1.15;;;;;;;;;;5003349;28;20986;-72
2021/12/31 11:14:10;;;;;;;1.17;0.90;;;;;;;;;;5000895;28;20029;-72
2021/12/31 11:16:39;;;;;;;1.35;1.05;;;;;;;;;;5003252;28;20674;-72
2021/12/31 11:19:05;;;;;;;1.17;1.08;;;;;;;;;;5002963;28;20037;-73
2021/12/31 11:21:31;;;;;;;0.98;0.93;;;;;;;;;;5001994;28;20045;-73
2021/12/31 11:24:30;;;;;;;2.58;1.08;;;;;;;;;;5002868;28;20041;-73
2021/12/31 11:27:19;;;;;;;2.35;0.95;;;;;;;;;;5002357;28;20092;-73
2021/12/31 11:29:45;;;;;;;1.60;1.20;;;;;;;;;;5002889;28;20545;-72
2021/12/31 11:32:10;;;;;;;1.45;1.02;;;;;;;;;;5003010;28;20045;-72
2021/12/31 11:34:37;;;;;;;2.65;1.05;;;;;;;;;;5002668;28;20025;-73
2021/12/31 11:37:03;;;;;;;1.17;1.10;;;;;;;;;;5002077;28;20096;-72
2021/12/31 11:39:36;;;;;;;1.30;1.20;;;;;;;;;;5000794;28;20037;-72
2021/12/31 11:42:09;;;;;;;1.30;1.20;;;;;;;;;;5002087;28;20061;-72
2021/12/31 11:44:37;;;;;;;1.60;1.50;;;;;;;;;;5002217;28;20041;-72
2021/12/31 11:47:17;;;;;;;2.55;0.90;;;;;;;;;;5000797;28;20123;-73
2021/12/31 11:49:43;;;;;;;1.23;1.13;;;;;;;;;;5000633;28;20509;-72
2021/12/31 11:52:23;;;;;;;1.50;1.20;;;;;;;;;;5001235;28;20140;-72
2021/12/31 11:55:18;;;;;;;1.13;1.00;;;;;;;;;;5000556;28;20034;-73
2021/12/31 11:57:44;;;;;;;1.63;1.20;;;;;;;;;;5001140;28;20034;-73
2021/12/31 12:00:24;;;;;;;1.00;1.00;;;;;;;;;;5000593;28;20064;-73
2021/12/31 12:02:50;;;;;;;1.25;1.17;;;;;;;;;;5001744;28;21369;-72
2021/12/31 12:05:15;;;;;;;1.35;1.25;;;;;;;;;;5001385;28;20029;-72
2021/12/31 12:07:46;;;;;;;1.10;1.02;;;;;;;;;;5001780;28;20044;-73
2021/12/31 12:10:14;;;;;;;0.93;0.93;;;;;;;;;;5000891;28;20389;-72
2021/12/31 12:12:42;;;;;;;1.58;1.10;;;;;;;;;;5001599;28;20467;-73
2021/12/31 12:15:13;;;;;;;1.20;1.10;;;;;;;;;;5000793;28;20092;-72
2021/12/31 12:17:43;;;;;;;1.23;1.08;;;;;;;;;;5001660;28;20397;-74
2021/12/31 12:20:12;;;;;;;1.30;1.20;;;;;;;;;;5000478;28;20862;-72
2021/12/31 12:22:51;;;;;;;1.27;1.17;;;;;;;;;;5001167;28;20115;-73
2021/12/31 12:25:26;;;;;;;1.30;1.20;;;;;;;;;;5000361;28;20038;-75
2021/12/31 12:28:07;;;;;;;1.30;1.20;;;;;;;;;;5001506;28;20067;-72
2021/12/31 12:30:38;;;;;;;1.58;1.05;;;;;;;;;;5000153;28;20038;-73
2021/12/31 12:35:59;;;;;;;1.13;1.05;;;;;;;;;;4987408;28;20045;-74
2021/12/31 12:38:27;;;;;;;1.35;1.10;;;;;;;;;;5001098;28;20037;-74
2021/12/31 12:41:02;;;;;;;1.52;1.20;;;;;;;;;;5001449;28;20033;-74
2021/12/31 12:43:28;;;;;;;1.27;1.17;;;;;;;;;;5000151;28;20117;-73
2021/12/31 12:46:02;;;;;;;1.20;1.10;;;;;;;;;;5001149;28;20161;-74
2021/12/31 12:48:38;;;;;;;0.90;0.90;;;;;;;;;;5001040;28;20125;-72
2021/12/31 12:51:11;;;;;;;1.05;0.98;;;;;;;;;;5000419;28;20444;-73
2021/12/31 12:53:39;;;;;;;1.38;1.00;;;;;;;;;;4998879;28;20033;-73
2021/12/31 12:56:13;;;;;;;1.55;0.95;;;;;;;;;;5000589;28;20101;-73
2021/12/31 12:58:49;;;;;;;1.00;0.90;;;;;;;;;;5001050;28;20088;-73
2021/12/31 13:01:15;;;;;;;0.90;0.90;;;;;;;;;;5000605;28;20072;-73
2021/12/31 13:03:49;;;;;;;0.82;0.80;;;;;;;;;;4998674;28;20042;-72
2021/12/31 13:06:15;;;;;;;0.90;0.90;;;;;;;;;;5000595;28;20069;-72
2021/12/31 13:08:41;;;;;;;1.35;1.20;;;;;;;;;;5000442;28;20060;-73
2021/12/31 13:11:07;;;;;;;1.10;1.00;;;;;;;;;;5000619;28;20045;-73
2021/12/31 13:13:34;;;;;;;1.05;1.00;;;;;;;;;;5000864;28;20096;-73
2021/12/31 13:16:00;;;;;;;1.48;1.00;;;;;;;;;;5000090;28;20038;-73
2021/12/31 13:18:31;;;;;;;0.80;0.80;;;;;;;;;;4999634;28;20034;-73
2021/12/31 13:21:09;;;;;;;2.10;1.00;;;;;;;;;;5001046;28;20037;-73
2021/12/31 13:23:36;;;;;;;1.30;1.00;;;;;;;;;;5000183;28;20032;-73
2021/12/31 13:26:35;;;;;;;1.17;1.00;;;;;;;;;;4998349;28;20562;-73
2021/12/31 13:29:05;;;;;;;1.02;1.00;;;;;;;;;;4966979;28;20042;-73
2021/12/31 13:31:39;;;;;;;1.98;1.13;;;;;;;;;;5000817;28;20034;-73
2021/12/31 13:34:17;;;;;;;1.52;1.30;;;;;;;;;;5001420;28;20101;-74
2021/12/31 13:36:54;;;;;;;1.10;1.00;;;;;;;;;;4998676;28;20036;-73
2021/12/31 13:39:27;;;;;;;1.40;0.90;;;;;;;;;;4999180;28;20518;-73
2021/12/31 13:41:57;;;;;;;1.00;1.00;;;;;;;;;;5000936;28;20585;-73
2021/12/31 13:44:30;;;;;;;1.10;1.00;;;;;;;;;;4999920;28;20352;-75
2021/12/31 13:47:11;;;;;;;1.10;1.10;;;;;;;;;;5000456;28;20041;-73
2021/12/31 13:49:39;;;;;;;1.00;1.00;;;;;;;;;;5000400;28;20026;-73
2021/12/31 13:52:24;;;;;;;2.50;0.98;;;;;;;;;;5000343;28;20030;-73
2021/12/31 13:54:51;;;;;;;1.27;1.05;;;;;;;;;;5000131;28;20192;-73
2021/12/31 13:57:24;;;;;;;1.00;1.00;;;;;;;;;;5000649;28;20040;-73
2021/12/31 13:59:50;;;;;;;1.42;1.10;;;;;;;;;;4999721;28;20033;-73
2021/12/31 14:02:28;;;;;;;1.23;1.13;;;;;;;;;;5000413;28;20091;-73
2021/12/31 14:04:54;;;;;;;1.08;1.08;;;;;;;;;;5003196;28;20057;-73
2021/12/31 14:07:51;;;;;;;1.90;1.30;;;;;;;;;;5003704;28;20121;-72
2021/12/31 14:10:26;;;;;;;1.40;1.05;;;;;;;;;;5002351;28;20033;-73
2021/12/31 14:13:05;;;;;;;3.40;1.02;;;;;;;;;;5003356;28;20084;-73
2021/12/31 14:15:33;;;;;;;1.20;1.10;;;;;;;;;;5003552;28;20034;-73
2021/12/31 14:18:00;;;;;;;1.20;1.10;;;;;;;;;;5003138;28;20038;-73
2021/12/31 14:20:34;;;;;;;1.88;1.00;;;;;;;;;;5002612;28;20056;-73
2021/12/31 14:23:01;;;;;;;1.20;1.10;;;;;;;;;;5003572;28;20038;-73
2021/12/31 14:25:29;;;;;;;1.35;1.20;;;;;;;;;;5003593;28;20091;-71
2021/12/31 14:27:55;;;;;;;1.30;1.20;;;;;;;;;;5002055;28;20052;-72
2021/12/31 14:30:22;;;;;;;1.30;1.20;;;;;;;;;;5002777;28;20029;-72
2021/12/31 14:32:48;;;;;;;1.20;1.10;;;;;;;;;;5002312;28;20034;-72
2021/12/31 14:35:20;;;;;;;3.13;1.20;;;;;;;;;;5003964;28;20033;-72
2021/12/31 14:37:45;;;;;;;1.40;1.30;;;;;;;;;;5007366;28;20489;-73
2021/12/31 14:40:13;;;;;;;1.92;1.40;;;;;;;;;;5003905;28;20069;-73
2021/12/31 14:42:41;;;;;;;1.52;1.42;;;;;;;;;;5003040;28;20049;-72
2021/12/31 14:45:09;;;;;;;2.13;1.67;;;;;;;;;;5006710;28;20215;-73
2021/12/31 14:47:39;;;;;;;1.25;1.23;;;;;;;;;;5005982;28;20037;-73
2021/12/31 14:50:06;;;;;;;1.50;1.40;;;;;;;;;;5004161;28;20585;-72
2021/12/31 14:52:33;;;;;;;1.30;1.20;;;;;;;;;;5004363;28;20084;-72
2021/12/31 14:54:59;;;;;;;1.55;1.45;;;;;;;;;;5001970;28;20122;-73
2021/12/31 14:57:25;;;;;;;1.92;1.73;;;;;;;;;;5002969;28;21211;-73